createdAt,value
2019-01-25T00:02:02.266Z,32.20
2019-01-25T00:04:32.688Z,32.20
2019-01-25T00:07:05.131Z,31.20
2019-01-25T00:09:39.129Z,32.87
2019-01-25T00:12:09.882Z,32.47
2019-01-25T00:14:40.879Z,31.60
2019-01-25T00:17:11.874Z,32.23
2019-01-25T00:19:42.313Z,31.83
2019-01-25T00:22:12.825Z,34.13
2019-01-25T00:24:43.345Z,33.70
2019-01-25T00:27:13.807Z,32.27
2019-01-25T00:29:44.297Z,34.37
2019-01-25T00:32:16.163Z,31.47
2019-01-25T00:34:46.676Z,32.57
2019-01-25T00:37:17.178Z,33.50
2019-01-25T00:39:48.217Z,35.13
2019-01-25T00:42:21.751Z,32.23
2019-01-25T00:44:54.190Z,32.00
2019-01-25T00:47:24.624Z,34.70
2019-01-25T00:49:55.347Z,33.30
2019-01-25T00:52:25.844Z,32.57
2019-01-25T00:54:56.786Z,32.90
2019-01-25T00:57:27.267Z,33.37
2019-01-25T00:59:58.060Z,33.87
2019-01-25T01:02:28.867Z,32.50
2019-01-25T01:04:59.310Z,33.23
2019-01-25T01:07:29.754Z,32.60
2019-01-25T01:10:00.234Z,33.53
2019-01-25T01:12:30.696Z,31.53
2019-01-25T01:15:01.325Z,32.67
2019-01-25T01:17:31.852Z,33.87
2019-01-25T01:20:02.326Z,32.43
2019-01-25T01:22:32.805Z,32.67
2019-01-25T01:25:03.376Z,32.47
2019-01-25T01:27:33.906Z,32.23
2019-01-25T01:30:05.717Z,32.83
2019-01-25T01:32:36.483Z,32.93
2019-01-25T01:35:07.805Z,31.23
2019-01-25T01:37:38.286Z,32.30
2019-01-25T01:40:29.372Z,33.60
2019-01-25T01:43:00.155Z,32.27
2019-01-25T01:45:30.651Z,31.83
2019-01-25T01:48:01.159Z,31.63
2019-01-25T01:50:31.589Z,31.63
2019-01-25T01:53:02.080Z,32.70
2019-01-25T01:55:32.629Z,31.70
2019-01-25T01:58:03.105Z,32.87
2019-01-25T02:00:33.579Z,32.80
2019-01-25T02:03:06.196Z,32.37
2019-01-25T02:05:36.859Z,34.00
2019-01-25T02:08:07.445Z,32.03
2019-01-25T02:10:37.979Z,31.43
2019-01-25T02:13:19.561Z,30.60
2019-01-25T02:15:50.048Z,33.60
2019-01-25T02:18:20.611Z,31.73
2019-01-25T02:20:51.463Z,33.53
2019-01-25T02:23:22.049Z,34.17
2019-01-25T02:25:52.401Z,31.10
2019-01-25T02:28:24.569Z,33.57
2019-01-25T02:30:55.156Z,30.83
2019-01-25T02:33:25.606Z,32.10
2019-01-25T02:35:59.114Z,33.23
2019-01-25T02:38:29.517Z,31.90
2019-01-25T02:41:00.043Z,31.50
2019-01-25T02:43:30.509Z,32.27
2019-01-25T02:46:01.054Z,32.67
2019-01-25T02:48:31.470Z,30.83
2019-01-25T02:51:01.940Z,30.53
2019-01-25T02:53:32.285Z,29.43
2019-01-25T02:56:02.687Z,32.20
2019-01-25T02:58:33.080Z,29.47
2019-01-25T03:01:03.575Z,31.13
2019-01-25T03:03:34.026Z,30.73
2019-01-25T03:06:04.973Z,32.03
2019-01-25T03:08:36.395Z,29.10
2019-01-25T03:11:06.859Z,31.33
2019-01-25T03:13:37.331Z,29.67
2019-01-25T03:16:07.767Z,31.47
2019-01-25T03:18:38.297Z,29.87
2019-01-25T03:21:08.892Z,31.40
2019-01-25T03:23:39.346Z,31.60
2019-01-25T03:26:09.729Z,30.53
2019-01-25T03:28:40.244Z,30.47
2019-01-25T03:31:10.665Z,28.97
2019-01-25T03:33:44.003Z,29.37
2019-01-25T03:36:15.110Z,30.47
2019-01-25T03:38:45.558Z,29.33
2019-01-25T03:41:16.019Z,29.40
2019-01-25T03:43:46.572Z,29.07
2019-01-25T03:46:17.019Z,29.70
2019-01-25T03:48:47.762Z,30.27
2019-01-25T03:51:18.334Z,30.97
2019-01-25T03:53:48.836Z,31.53
2019-01-25T03:56:19.949Z,30.90
2019-01-25T03:58:50.449Z,29.97
2019-01-25T04:01:23.320Z,29.40
2019-01-25T04:03:54.556Z,28.30
2019-01-25T04:06:27.006Z,29.90
2019-01-25T04:08:57.628Z,29.53
2019-01-25T04:11:29.788Z,29.73
2019-01-25T04:14:27.574Z,30.90
2019-01-25T04:16:58.383Z,30.20
2019-01-25T04:19:29.035Z,30.87
2019-01-25T04:21:59.652Z,28.90
2019-01-25T04:24:30.307Z,30.17
2019-01-25T04:27:00.837Z,29.10
2019-01-25T04:29:31.680Z,28.67
2019-01-25T04:32:02.099Z,27.93
2019-01-25T04:34:32.831Z,29.23
2019-01-25T04:37:03.252Z,30.07
2019-01-25T04:39:34.097Z,30.07
2019-01-25T04:42:04.554Z,30.60
2019-01-25T04:44:35.027Z,27.77
2019-01-25T04:47:05.953Z,30.50
2019-01-25T04:49:38.515Z,29.70
2019-01-25T04:52:17.837Z,29.70
2019-01-25T04:54:48.357Z,30.33
2019-01-25T04:57:18.806Z,29.10
2019-01-25T04:59:52.321Z,29.70
2019-01-25T05:02:22.929Z,34.93
2019-01-25T05:04:53.384Z,33.00
2019-01-25T05:07:44.984Z,31.70
2019-01-25T05:10:16.842Z,30.53
2019-01-25T05:12:53.843Z,29.77
2019-01-25T05:15:27.092Z,29.57
2019-01-25T05:18:00.854Z,32.30
2019-01-25T05:20:31.296Z,29.87
2019-01-25T05:23:02.965Z,31.67
2019-01-25T05:25:33.693Z,31.00
2019-01-25T05:28:28.005Z,32.20
2019-01-25T05:31:05.170Z,31.47
2019-01-25T05:33:35.783Z,30.63
2019-01-25T05:36:09.211Z,31.90
2019-01-25T05:38:49.056Z,30.90
2019-01-25T05:41:19.454Z,30.40
2019-01-25T05:43:50.151Z,29.53
2019-01-25T05:46:23.631Z,29.50
2019-01-25T05:48:54.116Z,30.80
2019-01-25T05:51:24.692Z,31.00
2019-01-25T05:54:01.611Z,30.17
2019-01-25T05:56:32.118Z,30.97
2019-01-25T05:59:02.679Z,32.40
2019-01-25T06:01:33.165Z,30.47
2019-01-25T06:04:04.123Z,30.80
2019-01-25T06:06:41.651Z,30.17
2019-01-25T06:09:10.599Z,30.50
2019-01-25T06:11:41.450Z,32.80
2019-01-25T06:14:17.254Z,30.13
2019-01-25T06:16:47.860Z,31.13
2019-01-25T06:19:21.213Z,30.40
2019-01-25T06:21:55.684Z,32.47
2019-01-25T06:24:26.950Z,29.80
2019-01-25T06:26:58.498Z,28.97
2019-01-25T06:29:33.867Z,30.00
2019-01-25T06:32:07.966Z,30.80
2019-01-25T06:34:38.528Z,31.57
2019-01-25T06:37:09.094Z,30.73
2019-01-25T06:39:42.233Z,29.97
2019-01-25T06:42:12.827Z,28.90
2019-01-25T06:44:43.381Z,31.03
2019-01-25T06:47:14.641Z,30.00
2019-01-25T06:49:47.775Z,30.27
2019-01-25T06:52:19.970Z,31.00
2019-01-25T06:54:50.847Z,31.37
2019-01-25T06:57:31.121Z,32.33
2019-01-25T07:00:02.161Z,31.43
2019-01-25T07:02:36.453Z,30.23
2019-01-25T07:05:08.555Z,31.83
2019-01-25T07:07:40.613Z,30.77
2019-01-25T07:10:16.994Z,29.97
2019-01-25T07:12:53.787Z,29.87
2019-01-25T07:15:25.028Z,29.70
2019-01-25T07:17:55.600Z,30.00
2019-01-25T07:20:26.109Z,31.83
2019-01-25T07:22:56.612Z,32.23
2019-01-25T07:25:28.546Z,30.57
2019-01-25T07:27:59.053Z,30.70
2019-01-25T07:30:29.448Z,32.83
2019-01-25T07:32:59.905Z,31.47
2019-01-25T07:35:30.450Z,31.90
2019-01-25T07:38:00.966Z,32.40
2019-01-25T07:40:31.967Z,34.57
2019-01-25T07:43:19.784Z,34.37
2019-01-25T07:45:55.319Z,35.03
2019-01-25T07:48:25.813Z,35.87
2019-01-25T07:50:56.277Z,35.13
2019-01-25T07:53:26.835Z,37.43
2019-01-25T07:55:57.335Z,35.30
2019-01-25T07:58:33.661Z,33.20
2019-01-25T08:01:09.267Z,33.23
2019-01-25T08:03:42.614Z,33.00
2019-01-25T08:06:13.456Z,34.67
2019-01-25T08:08:44.133Z,34.93
2019-01-25T08:11:14.621Z,32.30
2019-01-25T08:13:45.230Z,33.57
2019-01-25T08:16:20.859Z,33.83
2019-01-25T08:19:12.900Z,34.93
2019-01-25T08:21:44.523Z,33.17
2019-01-25T08:24:18.470Z,36.53
2019-01-25T08:26:49.903Z,34.57
2019-01-25T08:29:27.680Z,35.07
2019-01-25T08:31:53.361Z,34.63
2019-01-25T08:34:24.747Z,37.63
2019-01-25T08:43:03.410Z,36.03
2019-01-25T08:47:09.137Z,33.17
2019-01-25T08:52:42.599Z,34.70
2019-01-25T08:55:23.974Z,36.63
2019-01-25T08:57:55.769Z,36.97
2019-01-25T09:00:26.458Z,35.20
2019-01-25T09:02:59.005Z,36.87
2019-01-25T09:05:32.777Z,38.50
2019-01-25T09:08:05.743Z,37.90
2019-01-25T09:10:39.736Z,38.03
2019-01-25T09:13:13.341Z,36.77
2019-01-25T09:15:43.888Z,37.80
2019-01-25T09:18:14.601Z,37.57
2019-01-25T09:20:51.927Z,38.47
2019-01-25T09:23:22.435Z,39.17
2019-01-25T09:26:00.924Z,41.57
2019-01-25T09:28:28.332Z,39.90
2019-01-25T09:31:03.114Z,39.23
2019-01-25T09:33:33.810Z,39.27
2019-01-25T09:36:07.701Z,39.97
2019-01-25T09:38:43.451Z,37.27
2019-01-25T09:41:53.952Z,36.47
2019-01-25T09:44:29.309Z,37.90
2019-01-25T09:47:20.636Z,36.50
2019-01-25T09:49:52.374Z,37.83
2019-01-25T09:52:31.102Z,38.13
2019-01-25T09:55:29.238Z,36.63
2019-01-25T09:58:02.984Z,33.70
2019-01-25T10:04:12.272Z,34.30
2019-01-25T10:07:40.059Z,35.27
2019-01-25T10:14:11.200Z,36.13
2019-01-25T10:17:13.209Z,36.93
2019-01-25T10:23:54.768Z,37.13
2019-01-25T10:29:21.936Z,42.07
2019-01-25T10:32:10.367Z,39.40
2019-01-25T10:34:44.394Z,36.17
2019-01-25T10:42:22.902Z,31.97
2019-01-25T10:45:32.573Z,31.03
2019-01-25T10:48:04.758Z,34.67
2019-01-25T10:59:06.242Z,41.50
2019-01-25T11:02:25.608Z,37.37
2019-01-25T11:04:56.772Z,38.13
2019-01-25T11:08:09.708Z,34.93
2019-01-25T11:11:00.200Z,43.17
2019-01-25T11:14:17.497Z,37.80
2019-01-25T11:16:53.157Z,38.00
2019-01-25T11:19:23.818Z,33.67
2019-01-25T11:22:06.436Z,30.97
2019-01-25T11:44:22.616Z,31.30
2019-01-25T11:46:54.997Z,29.53
2019-01-25T11:52:37.897Z,29.67
2019-01-25T11:55:09.014Z,29.90
2019-01-25T11:57:43.131Z,30.07
2019-01-25T12:04:22.333Z,31.77
2019-01-25T12:07:07.126Z,32.80
2019-01-25T12:10:07.978Z,32.93
2019-01-25T12:12:43.189Z,31.80
2019-01-25T12:15:17.444Z,30.80
2019-01-25T12:17:48.188Z,30.87
2019-01-25T12:20:29.014Z,32.77
2019-01-25T12:23:15.065Z,33.20
2019-01-25T12:25:50.160Z,34.20
2019-01-25T12:28:49.190Z,33.03
2019-01-25T12:31:52.325Z,31.03
2019-01-25T12:34:36.066Z,40.10
2019-01-25T12:37:07.666Z,33.43
2019-01-25T12:41:11.648Z,33.17
2019-01-25T12:43:34.663Z,32.57
2019-01-25T12:46:54.058Z,33.20
2019-01-25T12:52:43.746Z,31.73
2019-01-25T12:55:21.082Z,35.27
2019-01-25T12:58:15.714Z,34.63
2019-01-25T13:00:49.890Z,34.67
2019-01-25T13:03:21.186Z,35.27
2019-01-25T13:05:53.811Z,35.07
2019-01-25T13:08:57.375Z,33.93
2019-01-25T13:17:21.094Z,34.07
2019-01-25T13:19:57.835Z,34.87
2019-01-25T13:23:31.753Z,36.33
2019-01-25T13:30:06.215Z,38.07
2019-01-25T13:32:40.647Z,36.97
2019-01-25T13:35:16.088Z,37.03
2019-01-25T13:37:48.593Z,40.37
2019-01-25T13:44:45.247Z,35.67
2019-01-25T13:51:18.920Z,37.43
2019-01-25T13:53:54.708Z,37.10
2019-01-25T13:56:32.977Z,35.03
2019-01-25T14:03:09.682Z,35.63
2019-01-25T14:05:40.175Z,38.00
2019-01-25T14:08:22.531Z,38.67
2019-01-25T14:10:53.352Z,40.17
2019-01-25T14:13:24.207Z,39.37
2019-01-25T14:15:54.629Z,37.23
2019-01-25T14:18:33.886Z,37.90
2019-01-25T14:21:04.607Z,36.60
2019-01-25T14:23:35.410Z,39.63
2019-01-25T14:26:07.825Z,38.50
2019-01-25T14:28:50.400Z,39.27
2019-01-25T14:31:43.723Z,35.83
2019-01-25T14:34:16.024Z,35.57
2019-01-25T14:36:55.521Z,36.17
2019-01-25T14:39:31.867Z,36.93
2019-01-25T14:42:06.075Z,34.87
2019-01-25T14:45:01.482Z,34.97
2019-01-25T14:47:43.910Z,34.40
2019-01-25T14:50:32.711Z,34.37
2019-01-25T14:53:04.869Z,35.03
2019-01-25T14:55:42.849Z,33.93
2019-01-25T14:58:14.243Z,34.07
2019-01-25T15:00:48.097Z,33.83
2019-01-25T15:03:22.812Z,35.00
2019-01-25T15:05:55.371Z,36.20
2019-01-25T15:08:26.165Z,34.77
2019-01-25T15:11:03.132Z,34.33
2019-01-25T15:13:37.447Z,35.07
2019-01-25T15:16:30.251Z,35.50
2019-01-25T15:19:09.667Z,35.43
2019-01-25T15:22:16.994Z,35.40
2019-01-25T15:24:55.618Z,34.03
2019-01-25T15:27:29.833Z,35.30
2019-01-25T15:30:13.775Z,36.03
2019-01-25T15:33:01.553Z,36.70
2019-01-25T15:36:06.151Z,36.27
2019-01-25T15:38:37.343Z,34.23
2019-01-25T15:41:11.437Z,36.60
2019-01-25T15:43:41.934Z,37.90
2019-01-25T15:46:12.612Z,37.27
2019-01-25T15:48:51.007Z,36.77
2019-01-25T15:51:24.267Z,37.30
2019-01-25T15:53:55.034Z,37.80
2019-01-25T15:56:27.680Z,37.53
2019-01-25T15:58:58.377Z,37.53
2019-01-25T16:01:28.988Z,37.73
2019-01-25T16:03:59.669Z,34.17
2019-01-25T16:06:30.274Z,38.67
2019-01-25T16:09:08.383Z,39.50
2019-01-25T16:11:40.518Z,39.90
2019-01-25T16:14:18.327Z,38.60
2019-01-25T16:16:52.844Z,41.53
2019-01-25T16:19:23.591Z,40.63
2019-01-25T16:21:54.091Z,36.87
2019-01-25T16:24:24.712Z,37.93
2019-01-25T16:27:07.631Z,39.73
2019-01-25T16:29:41.040Z,38.57
2019-01-25T16:32:11.800Z,36.03
2019-01-25T16:34:42.649Z,38.23
2019-01-25T16:37:13.076Z,37.77
2019-01-25T16:39:50.736Z,39.30
2019-01-25T16:42:22.806Z,37.87
2019-01-25T16:44:55.006Z,39.57
2019-01-25T16:47:26.093Z,38.03
2019-01-25T16:50:12.084Z,38.27
2019-01-25T16:52:45.860Z,40.37
2019-01-25T16:55:19.130Z,38.20
2019-01-25T16:58:31.840Z,39.43
2019-01-25T17:02:05.150Z,38.40
2019-01-25T17:05:08.644Z,37.17
2019-01-25T17:07:45.671Z,37.90
2019-01-25T17:10:23.620Z,38.63
2019-01-25T17:12:57.804Z,36.30
2019-01-25T17:15:41.099Z,39.83
2019-01-25T17:18:18.465Z,34.83
2019-01-25T17:20:52.478Z,34.07
2019-01-25T17:23:30.800Z,33.73
2019-01-25T17:26:10.307Z,37.10
2019-01-25T17:28:51.926Z,34.87
2019-01-25T17:31:24.003Z,38.73
2019-01-25T17:33:59.066Z,37.40
2019-01-25T17:36:44.805Z,35.40
2019-01-25T17:39:23.415Z,35.83
2019-01-25T17:41:57.776Z,37.07
2019-01-25T17:44:32.564Z,35.37
2019-01-25T17:47:15.760Z,35.23
2019-01-25T17:49:57.286Z,35.17
2019-01-25T17:52:47.261Z,36.87
2019-01-25T17:55:18.301Z,37.07
2019-01-25T17:58:07.689Z,34.30
2019-01-25T18:00:44.326Z,34.20
2019-01-25T18:03:19.086Z,33.73
2019-01-25T18:05:56.512Z,32.93
2019-01-25T18:08:33.777Z,34.70
2019-01-25T18:11:08.297Z,32.40
2019-01-25T18:14:02.283Z,33.17
2019-01-25T18:16:49.907Z,38.00
2019-01-25T18:19:24.403Z,34.13
2019-01-25T18:21:59.135Z,34.23
2019-01-25T18:24:34.273Z,31.33
2019-01-25T18:27:08.985Z,33.20
2019-01-25T18:30:17.963Z,32.83
2019-01-25T18:32:50.698Z,30.70
2019-01-25T18:35:29.143Z,33.10
2019-01-25T18:38:19.644Z,33.07
2019-01-25T18:40:57.347Z,31.13
2019-01-25T18:43:37.903Z,23.93
2019-01-25T18:46:14.270Z,25.97
2019-01-25T18:49:04.521Z,24.17
2019-01-25T18:51:35.892Z,21.33
2019-01-25T18:54:09.479Z,23.07
2019-01-25T18:56:43.467Z,20.73
2019-01-25T18:59:19.280Z,26.83
2019-01-25T19:01:54.766Z,20.67
2019-01-25T19:04:29.095Z,21.20
2019-01-25T19:07:00.200Z,22.47
2019-01-25T19:09:52.791Z,26.17
2019-01-25T19:12:27.609Z,31.93
2019-01-25T19:15:04.278Z,24.77
2019-01-25T19:17:30.923Z,24.30
2019-01-25T19:20:01.608Z,22.47
2019-01-25T19:22:32.847Z,21.63
2019-01-25T19:25:08.986Z,21.37
2019-01-25T19:27:44.167Z,23.10
2019-01-25T19:30:36.386Z,24.47
2019-01-25T19:33:07.491Z,23.97
2019-01-25T19:35:38.355Z,22.10
2019-01-25T19:38:11.601Z,20.23
2019-01-25T19:40:44.144Z,22.23
2019-01-25T19:43:14.805Z,20.97
2019-01-25T19:45:56.087Z,20.97
2019-01-25T19:48:30.607Z,20.87
2019-01-25T19:51:01.476Z,22.33
2019-01-25T19:53:32.493Z,22.63
2019-01-25T19:56:03.478Z,25.07
2019-01-25T19:58:37.995Z,24.83
2019-01-25T20:01:12.056Z,21.43
2019-01-25T20:03:43.260Z,22.07
2019-01-25T20:06:19.906Z,21.00
2019-01-25T20:08:50.773Z,21.00
2019-01-25T20:11:24.144Z,21.53
2019-01-25T20:13:55.285Z,22.53
2019-01-25T20:16:26.461Z,21.77
2019-01-25T20:19:04.141Z,23.17
2019-01-25T20:24:33.242Z,20.50
2019-01-25T20:27:04.617Z,22.20
2019-01-25T20:29:39.216Z,22.57
2019-01-25T20:32:10.066Z,20.27
2019-01-25T20:34:43.957Z,25.40
2019-01-25T20:37:14.695Z,22.33
2019-01-25T20:39:45.441Z,21.67
2019-01-25T20:42:16.673Z,22.13
2019-01-25T20:44:48.668Z,22.10
2019-01-25T20:47:20.591Z,22.27
2019-01-25T20:49:58.804Z,20.90
2019-01-25T20:52:57.282Z,21.27
2019-01-25T20:55:41.813Z,21.67
2019-01-25T20:58:19.175Z,21.73
2019-01-25T21:01:14.350Z,20.93
2019-01-25T21:04:05.653Z,20.13
2019-01-25T21:06:44.070Z,19.97
2019-01-25T21:09:24.362Z,21.10
2019-01-25T21:12:16.351Z,21.90
2019-01-25T21:15:35.156Z,20.57
2019-01-25T21:18:16.639Z,19.30
2019-01-25T21:21:11.742Z,18.60
2019-01-25T21:23:57.438Z,20.30
2019-01-25T21:26:59.820Z,20.13
2019-01-25T21:29:44.872Z,20.03
2019-01-25T21:33:20.922Z,20.00
2019-01-25T21:35:57.822Z,18.73
2019-01-25T21:38:54.719Z,19.07
2019-01-25T21:41:52.001Z,19.37
2019-01-25T21:45:02.889Z,20.20
2019-01-25T21:47:39.109Z,18.97
2019-01-25T21:50:56.266Z,20.27
2019-01-25T21:53:35.912Z,19.33
2019-01-25T21:56:13.001Z,20.07
2019-01-25T21:58:52.165Z,19.37
2019-01-25T22:01:31.235Z,19.77
2019-01-25T22:04:04.036Z,18.73
2019-01-25T22:06:38.940Z,20.47
2019-01-25T22:09:16.342Z,19.57
2019-01-25T22:11:53.605Z,19.63
2019-01-25T22:14:24.685Z,19.50
2019-01-25T22:16:55.715Z,19.90
2019-01-25T22:19:29.622Z,19.60
2019-01-25T22:22:02.709Z,20.73
2019-01-25T22:24:33.335Z,19.73
2019-01-25T22:27:09.517Z,19.57
2019-01-25T22:29:48.346Z,19.43
2019-01-25T22:32:47.420Z,20.17
2019-01-25T22:35:19.216Z,19.70
2019-01-25T22:37:56.963Z,19.30
2019-01-25T22:40:30.918Z,19.93
2019-01-25T22:43:07.458Z,20.13
2019-01-25T22:45:42.189Z,19.67
2019-01-25T22:48:23.500Z,19.83
2019-01-25T22:50:57.539Z,18.53
2019-01-25T22:53:28.939Z,20.20
2019-01-25T22:55:59.569Z,20.67
2019-01-25T22:58:30.713Z,21.33
2019-01-25T23:01:26.748Z,19.57
2019-01-25T23:04:36.080Z,21.87
2019-01-25T23:07:20.091Z,20.40
2019-01-25T23:09:57.501Z,19.23
2019-01-25T23:12:28.898Z,20.23
2019-01-25T23:14:59.888Z,20.50
2019-01-25T23:17:30.892Z,21.80
2019-01-25T23:22:44.993Z,22.97
2019-01-25T23:25:17.851Z,22.00
2019-01-25T23:27:48.710Z,21.57
2019-01-25T23:30:20.283Z,22.70
2019-01-25T23:32:51.016Z,21.90
2019-01-25T23:35:24.100Z,21.13
2019-01-25T23:37:59.636Z,22.37
2019-01-25T23:40:38.537Z,22.70
2019-01-25T23:43:24.535Z,22.03
2019-01-25T23:45:51.779Z,24.63
2019-01-25T23:48:26.790Z,22.33
2019-01-25T23:51:10.446Z,23.23
2019-01-25T23:53:43.278Z,23.53
2019-01-25T23:56:17.482Z,22.17
2019-01-25T23:58:50.042Z,23.10
